Columbus, North Dakota
Current Conditions -  °F | °C
As of 6:00 PM on Wednesday 28 Jan 2015 (Local Time) from CYEN Reporting Station
Light Snow Light Snow  
Wind Chill: -9°   Ceiling: 900
Heat Index: -2°   Visibility: 10mi
Dew Point: -3°   Wind: 20mph
Humidity: 93%   Direction: 310°NW
Pressure: 30.14"   Gusts: 29mph
Location:  48.9°N, 102.78°W
Report Text: CYEN 290000Z 31017G25KT 10SM -SN OVC009 M02/M03 A3014 RMK SC8FG SLP239
Loading
Personal Weather Stations






























Interactive Weather Map New forecast layout! Learn more

10-Day Weather Forecast

Advertisements
Track Severe Weather on mobile